createdAt,value
2023-02-01T00:01:27.822Z,101250.97
2023-02-01T00:03:55.758Z,101245.50
2023-02-01T00:06:24.146Z,101239.09
2023-02-01T00:08:55.977Z,101240.09
2023-02-01T00:11:25.405Z,101235.53
2023-02-01T00:13:53.640Z,101235.50
2023-02-01T00:16:25.294Z,101236.06
2023-02-01T00:18:59.413Z,101240.28
2023-02-01T00:21:28.584Z,101235.19
2023-02-01T00:23:56.843Z,101234.94
2023-02-01T00:26:46.585Z,101233.28
2023-02-01T00:29:18.178Z,101230.13
2023-02-01T00:31:47.231Z,101233.34
2023-02-01T00:34:17.689Z,101236.75
2023-02-01T00:36:46.306Z,101233.56
2023-02-01T00:39:14.203Z,101238.81
2023-02-01T00:41:42.404Z,101242.06
2023-02-01T00:44:10.531Z,101239.69
2023-02-01T00:46:40.020Z,101232.88
2023-02-01T00:49:09.403Z,101228.63
2023-02-01T00:51:37.730Z,101223.81
2023-02-01T00:54:05.644Z,101229.13
2023-02-01T00:56:33.946Z,101231.72
2023-02-01T00:59:01.844Z,101235.94
2023-02-01T01:01:30.518Z,101235.91
2023-02-01T01:04:00.778Z,101228.97
2023-02-01T01:06:31.657Z,101234.84
2023-02-01T01:09:02.274Z,101243.16
2023-02-01T01:11:33.321Z,101232.19
2023-02-01T01:14:01.476Z,101230.78
2023-02-01T01:16:32.677Z,101233.91
2023-02-01T01:19:01.227Z,101237.09
2023-02-01T01:21:30.265Z,101224.28
2023-02-01T01:23:58.305Z,101233.97
2023-02-01T01:26:29.308Z,101223.97
2023-02-01T01:28:59.666Z,101223.50
2023-02-01T01:31:28.303Z,101230.75
2023-02-01T01:33:58.820Z,101229.94
2023-02-01T01:36:28.251Z,101219.78
2023-02-01T01:38:56.209Z,101215.59
2023-02-01T01:41:27.576Z,101218.13
2023-02-01T01:44:02.342Z,101221.03
2023-02-01T01:46:32.600Z,101221.31
2023-02-01T01:49:25.291Z,101220.25
2023-02-01T01:52:00.786Z,101220.75
2023-02-01T01:54:42.346Z,101209.16
2023-02-01T01:57:15.943Z,101211.63
2023-02-01T01:59:48.344Z,101208.50
2023-02-01T02:02:17.826Z,101198.78
2023-02-01T02:04:47.437Z,101198.97
2023-02-01T02:07:27.756Z,101189.09
2023-02-01T02:10:00.857Z,101194.25
2023-02-01T02:12:30.130Z,101187.00
2023-02-01T02:14:58.131Z,101185.88
2023-02-01T02:17:57.686Z,101188.50
2023-02-01T02:20:50.422Z,101186.56
2023-02-01T02:23:24.807Z,101186.75
2023-02-01T02:26:10.753Z,101186.84
2023-02-01T02:29:08.991Z,101189.25
2023-02-01T02:32:16.664Z,101186.44
2023-02-01T02:34:53.570Z,101187.47
2023-02-01T02:37:39.562Z,101189.75
2023-02-01T02:40:17.513Z,101197.94
2023-02-01T02:43:16.253Z,101190.69
2023-02-01T02:46:11.022Z,101191.22
2023-02-01T02:48:43.452Z,101198.84
2023-02-01T02:51:33.288Z,101184.09
2023-02-01T02:54:26.875Z,101190.16
2023-02-01T02:57:16.826Z,101194.38
2023-02-01T03:00:07.120Z,101194.88
2023-02-01T03:02:54.714Z,101188.47
2023-02-01T03:05:22.916Z,101194.66
2023-02-01T03:08:27.080Z,101193.31
2023-02-01T03:11:11.854Z,101194.75
2023-02-01T03:13:51.181Z,101194.19
2023-02-01T03:16:33.186Z,101197.41
2023-02-01T03:19:25.319Z,101203.81
2023-02-01T03:22:16.675Z,101197.97
2023-02-01T03:24:53.057Z,101200.88
2023-02-01T03:27:37.289Z,101204.59
2023-02-01T03:30:09.336Z,101200.44
2023-02-01T03:33:00.430Z,101203.59
2023-02-01T03:36:00.200Z,101206.09
2023-02-01T03:38:31.775Z,101204.72
2023-02-01T03:41:17.312Z,101201.56
2023-02-01T03:44:04.296Z,101197.38
2023-02-01T03:46:38.976Z,101208.53
2023-02-01T03:49:11.879Z,101210.34
2023-02-01T03:51:42.323Z,101202.63
2023-02-01T03:54:16.350Z,101197.16
2023-02-01T03:56:47.529Z,101195.63
2023-02-01T03:59:16.488Z,101200.44
2023-02-01T04:01:44.434Z,101210.78
2023-02-01T04:04:21.196Z,101212.91
2023-02-01T04:06:53.318Z,101202.09
2023-02-01T04:09:22.759Z,101210.59
2023-02-01T04:11:50.809Z,101217.66
2023-02-01T04:14:19.227Z,101216.44
2023-02-01T04:16:47.360Z,101204.06
2023-02-01T04:19:16.317Z,101208.47
2023-02-01T04:21:44.435Z,101210.84
2023-02-01T04:24:12.940Z,101214.16
2023-02-01T04:26:41.023Z,101218.91
2023-02-01T04:29:11.395Z,101221.91
2023-02-01T04:31:39.622Z,101220.59
2023-02-01T04:34:08.209Z,101217.16
2023-02-01T04:36:36.298Z,101229.97
2023-02-01T04:39:04.785Z,101238.72
2023-02-01T04:41:32.788Z,101228.06
2023-02-01T04:44:01.161Z,101226.56
2023-02-01T04:46:29.154Z,101228.75
2023-02-01T04:48:58.653Z,101228.53
2023-02-01T04:51:26.627Z,101227.94
2023-02-01T04:53:57.185Z,101229.03
2023-02-01T04:56:25.138Z,101229.03
2023-02-01T04:58:54.269Z,101224.94
2023-02-01T05:01:22.405Z,101222.91
2023-02-01T05:03:50.747Z,101230.53
2023-02-01T05:06:18.806Z,101221.50
2023-02-01T05:08:47.170Z,101221.16
2023-02-01T05:11:38.410Z,101224.44
2023-02-01T05:14:08.253Z,101223.88
2023-02-01T05:16:36.647Z,101223.22
2023-02-01T05:19:04.988Z,101230.09
2023-02-01T05:21:32.948Z,101226.56
2023-02-01T05:24:21.780Z,101229.06
2023-02-01T05:26:50.773Z,101223.41
2023-02-01T05:29:19.598Z,101221.44
2023-02-01T05:31:48.445Z,101221.56
2023-02-01T05:34:17.177Z,101218.50
2023-02-01T05:36:45.294Z,101213.63
2023-02-01T05:39:15.157Z,101218.56
2023-02-01T05:41:43.188Z,101220.81
2023-02-01T05:44:12.308Z,101215.25
2023-02-01T05:46:40.395Z,101219.31
2023-02-01T05:49:09.477Z,101229.78
2023-02-01T05:51:37.406Z,101237.81
2023-02-01T05:54:05.847Z,101230.53
2023-02-01T05:56:33.786Z,101223.75
2023-02-01T05:59:05.137Z,101218.47
2023-02-01T06:01:33.106Z,101223.34
2023-02-01T06:04:01.404Z,101231.53
2023-02-01T06:06:29.671Z,101232.19
2023-02-01T06:08:58.199Z,101228.94
2023-02-01T06:11:33.500Z,101219.56
2023-02-01T06:14:02.146Z,101227.88
2023-02-01T06:16:30.185Z,101220.03
2023-02-01T06:18:59.382Z,101224.81
2023-02-01T06:21:27.354Z,101223.03
2023-02-01T06:23:56.050Z,101231.75
2023-02-01T06:26:24.144Z,101226.00
2023-02-01T06:28:52.583Z,101227.09
2023-02-01T06:31:20.678Z,101221.03
2023-02-01T06:33:50.757Z,101217.81
2023-02-01T06:36:19.949Z,101215.91
2023-02-01T06:38:49.019Z,101214.06
2023-02-01T06:41:17.839Z,101219.38
2023-02-01T06:43:47.540Z,101226.97
2023-02-01T06:46:16.173Z,101233.28
2023-02-01T06:48:47.218Z,101230.13
2023-02-01T06:51:33.281Z,101233.72
2023-02-01T06:54:02.154Z,101238.13
2023-02-01T06:56:30.351Z,101241.25
2023-02-01T06:58:58.709Z,101241.88
2023-02-01T07:01:26.827Z,101245.91
2023-02-01T07:03:55.237Z,101235.56
2023-02-01T07:06:23.855Z,101237.94
2023-02-01T07:08:52.197Z,101256.53
2023-02-01T07:11:20.331Z,101255.78
2023-02-01T07:13:49.336Z,101259.22
2023-02-01T07:16:20.308Z,101253.31
2023-02-01T07:18:49.284Z,101246.97
2023-02-01T07:21:17.168Z,101254.44
2023-02-01T07:23:46.816Z,101253.13
2023-02-01T07:26:16.132Z,101253.53
2023-02-01T07:28:44.427Z,101252.91
2023-02-01T07:31:20.068Z,101253.44
2023-02-01T07:33:49.828Z,101251.59
2023-02-01T07:36:19.063Z,101244.81
2023-02-01T07:38:53.690Z,101243.69
2023-02-01T07:41:23.327Z,101253.06
2023-02-01T07:43:54.453Z,101262.16
2023-02-01T07:46:22.750Z,101268.09
2023-02-01T07:48:51.076Z,101260.63
2023-02-01T07:51:19.307Z,101271.31
2023-02-01T07:53:47.783Z,101273.56
2023-02-01T07:56:18.700Z,101284.53
2023-02-01T07:59:01.109Z,101291.56
2023-02-01T08:01:30.506Z,101288.59
2023-02-01T08:04:00.557Z,101285.94
2023-02-01T08:06:32.546Z,101292.69
2023-02-01T08:09:01.012Z,101286.97
2023-02-01T08:11:29.170Z,101295.47
2023-02-01T08:13:58.949Z,101300.56
2023-02-01T08:16:27.144Z,101291.81
2023-02-01T08:18:55.977Z,101278.16
2023-02-01T08:21:30.308Z,101280.53
2023-02-01T08:23:59.055Z,101276.28
2023-02-01T08:26:27.705Z,101269.13
2023-02-01T08:28:59.236Z,101264.06
2023-02-01T08:31:29.914Z,101270.19
2023-02-01T08:34:01.054Z,101273.59
2023-02-01T08:36:31.790Z,101276.50
2023-02-01T08:39:01.802Z,101272.47
2023-02-01T08:41:31.294Z,101267.75
2023-02-01T08:43:59.657Z,101272.53
2023-02-01T08:46:28.715Z,101280.16
2023-02-01T08:48:58.859Z,101276.22
2023-02-01T08:51:27.172Z,101269.00
2023-02-01T08:53:55.376Z,101270.34
2023-02-01T08:56:23.451Z,101289.41
2023-02-01T08:58:51.760Z,101271.75
2023-02-01T09:01:19.882Z,101269.50
2023-02-01T09:03:49.228Z,101275.38
2023-02-01T09:06:17.557Z,101282.28
2023-02-01T09:08:46.081Z,101277.00
2023-02-01T09:11:18.499Z,101272.03
2023-02-01T09:13:48.233Z,101276.72
2023-02-01T09:16:16.894Z,101265.16
2023-02-01T09:18:56.098Z,101269.16
2023-02-01T09:21:30.647Z,101269.75
2023-02-01T09:24:00.140Z,101269.88
2023-02-01T09:26:32.969Z,101266.03
2023-02-01T09:29:02.247Z,101261.75
2023-02-01T09:31:31.726Z,101255.06
2023-02-01T09:34:00.263Z,101262.31
2023-02-01T09:36:30.218Z,101262.72
2023-02-01T09:39:01.133Z,101266.13
2023-02-01T09:41:39.109Z,101269.44
2023-02-01T09:44:19.738Z,101282.34
2023-02-01T09:46:48.442Z,101283.00
2023-02-01T09:49:23.618Z,101279.84
2023-02-01T09:51:54.445Z,101277.13
2023-02-01T09:54:42.662Z,101278.28
2023-02-01T09:57:39.629Z,101276.88
2023-02-01T10:00:19.611Z,101278.38
2023-02-01T10:02:47.737Z,101274.69
2023-02-01T10:05:21.878Z,101275.03
2023-02-01T10:08:02.439Z,101279.03
2023-02-01T10:10:41.008Z,101282.28
2023-02-01T10:13:14.965Z,101277.41
2023-02-01T10:16:01.572Z,101276.66
2023-02-01T10:18:40.548Z,101278.13
2023-02-01T10:21:27.677Z,101260.09
2023-02-01T10:24:15.941Z,101269.81
2023-02-01T10:27:11.767Z,101265.19
2023-02-01T10:29:43.439Z,101257.09
2023-02-01T10:32:16.340Z,101249.75
2023-02-01T10:34:50.020Z,101241.84
2023-02-01T10:37:33.100Z,101248.34
2023-02-01T10:40:15.978Z,101262.03
2023-02-01T10:42:45.598Z,101258.13
2023-02-01T10:45:22.987Z,101268.22
2023-02-01T10:47:53.811Z,101261.59
2023-02-01T10:51:00.724Z,101258.44
2023-02-01T10:53:44.097Z,101253.06
2023-02-01T10:56:14.393Z,101252.78
2023-02-01T10:58:48.137Z,101259.94
2023-02-01T11:01:22.600Z,101261.53
2023-02-01T11:04:05.600Z,101245.06
2023-02-01T11:06:49.079Z,101236.66
2023-02-01T11:09:25.915Z,101245.81
2023-02-01T11:11:59.788Z,101241.22
2023-02-01T11:14:36.612Z,101235.69
2023-02-01T11:17:18.745Z,101246.03
2023-02-01T11:20:01.133Z,101256.56
2023-02-01T11:22:31.328Z,101248.03
2023-02-01T11:25:02.782Z,101246.66
2023-02-01T11:27:34.743Z,101250.19
2023-02-01T11:30:07.289Z,101246.94
2023-02-01T11:32:35.612Z,101240.25
2023-02-01T11:35:07.725Z,101246.16
2023-02-01T11:37:40.971Z,101250.63
2023-02-01T11:40:18.632Z,101238.41
2023-02-01T11:43:01.693Z,101249.50
2023-02-01T11:45:32.264Z,101234.22
2023-02-01T11:48:01.691Z,101223.69
2023-02-01T11:50:53.006Z,101217.88
2023-02-01T11:53:28.947Z,101219.38
2023-02-01T11:56:03.277Z,101215.03
2023-02-01T11:58:52.247Z,101209.28
2023-02-01T12:01:43.788Z,101198.41
2023-02-01T12:04:33.302Z,101196.94
2023-02-01T12:07:22.641Z,101181.22
2023-02-01T12:09:57.846Z,101185.31
2023-02-01T12:12:32.598Z,101182.50
2023-02-01T12:15:18.590Z,101176.00
2023-02-01T12:18:07.719Z,101185.19
2023-02-01T12:21:00.828Z,101178.69
2023-02-01T12:24:06.228Z,101175.16
2023-02-01T12:26:45.711Z,101179.28
2023-02-01T12:29:44.600Z,101169.97
2023-02-01T12:32:34.688Z,101157.78
2023-02-01T12:35:21.761Z,101152.13
2023-02-01T12:37:57.160Z,101169.00
2023-02-01T12:40:37.436Z,101149.81
2023-02-01T12:43:34.210Z,101144.72
2023-02-01T12:46:14.697Z,101136.38
2023-02-01T12:48:54.828Z,101137.03
2023-02-01T12:51:36.441Z,101137.25
2023-02-01T12:54:13.257Z,101145.38
2023-02-01T12:57:04.279Z,101146.72
2023-02-01T12:59:57.069Z,101142.38
2023-02-01T13:03:03.941Z,101124.78
2023-02-01T13:05:53.697Z,101129.41
2023-02-01T13:08:47.251Z,101119.88
2023-02-01T13:11:32.581Z,101115.03
2023-02-01T13:14:25.652Z,101103.50
2023-02-01T13:17:04.779Z,101093.78
2023-02-01T13:20:00.318Z,101091.13
2023-02-01T13:22:49.013Z,101087.41
2023-02-01T13:25:28.771Z,101090.03
2023-02-01T13:28:03.660Z,101087.16
2023-02-01T13:30:55.695Z,101086.69
2023-02-01T13:33:55.302Z,101082.31
2023-02-01T13:36:37.250Z,101082.88
2023-02-01T13:39:14.072Z,101081.72
2023-02-01T13:42:17.507Z,101076.81
2023-02-01T13:44:57.978Z,101071.19
2023-02-01T13:47:28.764Z,101079.25
2023-02-01T13:50:01.494Z,101070.59
2023-02-01T13:52:46.199Z,101069.50
2023-02-01T13:55:14.136Z,101060.91
2023-02-01T13:57:47.731Z,101062.91
2023-02-01T14:00:31.830Z,101065.66
2023-02-01T14:03:03.505Z,101059.84
2023-02-01T14:05:31.705Z,101058.16
2023-02-01T14:08:14.792Z,101055.56
2023-02-01T14:11:01.325Z,101058.53
2023-02-01T14:13:31.283Z,101054.84
2023-02-01T14:16:05.239Z,101054.22
2023-02-01T14:18:36.501Z,101051.34
2023-02-01T14:21:22.965Z,101047.41
2023-02-01T14:23:55.171Z,101053.63
2023-02-01T14:26:29.431Z,101056.72
2023-02-01T14:29:20.040Z,101048.31
2023-02-01T14:31:51.409Z,101044.91
2023-02-01T14:34:28.894Z,101036.72
2023-02-01T14:37:10.089Z,101030.16
2023-02-01T14:39:47.928Z,101022.16
2023-02-01T14:42:30.874Z,101026.81
2023-02-01T14:45:24.616Z,101021.09
2023-02-01T14:48:08.223Z,101031.22
2023-02-01T14:50:42.040Z,101041.91
2023-02-01T14:53:10.057Z,101045.44
2023-02-01T14:55:44.307Z,101036.91
2023-02-01T14:58:37.650Z,101048.34
2023-02-01T15:01:25.324Z,101039.44
2023-02-01T15:04:06.689Z,101044.31
2023-02-01T15:06:51.660Z,101042.03
2023-02-01T15:09:39.054Z,101048.78
2023-02-01T15:12:13.472Z,101039.13
2023-02-01T15:15:05.480Z,101034.84
2023-02-01T15:17:35.430Z,101026.53
2023-02-01T15:20:17.173Z,101027.28
2023-02-01T15:23:20.012Z,101027.66
2023-02-01T15:25:48.094Z,101032.03
2023-02-01T15:28:18.021Z,101022.47
2023-02-01T15:30:59.733Z,101014.50
2023-02-01T15:33:30.333Z,101015.50
2023-02-01T15:36:07.564Z,101017.75
2023-02-01T15:38:41.695Z,101007.75
2023-02-01T15:41:17.052Z,101006.72
2023-02-01T15:43:48.391Z,101004.31
2023-02-01T15:46:22.486Z,101003.00
2023-02-01T15:48:54.858Z,101010.47
2023-02-01T15:51:29.834Z,101015.72
2023-02-01T15:54:02.654Z,101017.91
2023-02-01T15:56:39.585Z,101007.66
2023-02-01T15:59:18.569Z,101016.75
2023-02-01T16:01:47.314Z,101014.66
2023-02-01T16:04:22.823Z,101025.47
2023-02-01T16:06:59.028Z,101019.75
2023-02-01T16:09:40.202Z,101032.31
2023-02-01T16:12:43.550Z,101029.25
2023-02-01T16:15:11.851Z,101026.94
2023-02-01T16:17:39.999Z,101036.44
2023-02-01T16:20:08.886Z,101036.84
2023-02-01T16:22:36.963Z,101036.78
2023-02-01T16:25:05.566Z,101041.63
2023-02-01T16:27:33.553Z,101039.69
2023-02-01T16:30:01.851Z,101024.56
2023-02-01T16:32:31.405Z,101036.06
2023-02-01T16:34:59.951Z,101031.56
2023-02-01T16:37:29.245Z,101025.16
2023-02-01T16:39:57.595Z,101025.75
2023-02-01T16:42:25.645Z,101030.84
2023-02-01T16:44:53.923Z,101036.88
2023-02-01T16:47:24.066Z,101038.97
2023-02-01T16:49:53.031Z,101037.28
2023-02-01T16:52:23.936Z,101038.75
2023-02-01T16:54:54.033Z,101044.78
2023-02-01T16:57:27.116Z,101048.72
2023-02-01T16:59:55.456Z,101053.03
2023-02-01T17:02:25.038Z,101056.97
2023-02-01T17:04:53.444Z,101050.47
2023-02-01T17:07:21.602Z,101054.72
2023-02-01T17:09:49.884Z,101051.47
2023-02-01T17:12:27.135Z,101057.66
2023-02-01T17:14:55.725Z,101046.59
2023-02-01T17:17:37.774Z,101060.56
2023-02-01T17:20:07.698Z,101047.00
2023-02-01T17:22:35.733Z,101049.94
2023-02-01T17:25:07.267Z,101058.66
2023-02-01T17:27:35.664Z,101054.69
2023-02-01T17:30:04.490Z,101061.31
2023-02-01T17:32:32.540Z,101057.84
2023-02-01T17:35:01.256Z,101059.50
2023-02-01T17:37:32.094Z,101069.09
2023-02-01T17:40:01.356Z,101065.56
2023-02-01T17:42:30.947Z,101064.44
2023-02-01T17:45:02.750Z,101067.41
2023-02-01T17:47:30.763Z,101065.84
2023-02-01T17:49:59.095Z,101078.66
2023-02-01T17:52:27.101Z,101070.25
2023-02-01T17:54:55.499Z,101073.44
2023-02-01T17:57:23.566Z,101073.66
2023-02-01T17:59:51.876Z,101071.06
2023-02-01T18:02:23.388Z,101075.34
2023-02-01T18:04:52.248Z,101070.06
2023-02-01T18:07:20.372Z,101075.25
2023-02-01T18:09:48.696Z,101080.06
2023-02-01T18:12:23.251Z,101079.66
2023-02-01T18:14:51.751Z,101078.00
2023-02-01T18:17:20.331Z,101091.19
2023-02-01T18:19:48.688Z,101090.25
2023-02-01T18:22:24.330Z,101087.13
2023-02-01T18:24:52.851Z,101084.75
2023-02-01T18:27:20.801Z,101083.34
2023-02-01T18:29:49.155Z,101089.00
2023-02-01T18:32:17.128Z,101088.00
2023-02-01T18:34:45.465Z,101087.78
2023-02-01T18:37:13.644Z,101093.69
2023-02-01T18:39:42.031Z,101079.44
2023-02-01T18:42:11.590Z,101086.56
2023-02-01T18:44:39.951Z,101083.75
2023-02-01T18:47:08.196Z,101086.31
2023-02-01T18:49:37.737Z,101083.28
2023-02-01T18:52:06.841Z,101085.50
2023-02-01T18:54:35.199Z,101083.06
2023-02-01T18:57:04.682Z,101089.66
2023-02-01T18:59:35.641Z,101088.59
2023-02-01T19:02:04.546Z,101092.47
2023-02-01T19:04:34.732Z,101082.81
2023-02-01T19:07:05.792Z,101091.16
2023-02-01T19:09:36.621Z,101081.78
2023-02-01T19:12:05.179Z,101080.75
2023-02-01T19:14:34.921Z,101087.91
2023-02-01T19:17:02.861Z,101090.41
2023-02-01T19:19:31.101Z,101087.03
2023-02-01T19:22:01.451Z,101104.63
2023-02-01T19:24:30.392Z,101098.63
2023-02-01T19:26:59.039Z,101100.28
2023-02-01T19:29:27.972Z,101095.34
2023-02-01T19:31:56.120Z,101098.09
2023-02-01T19:34:26.037Z,101099.59
2023-02-01T19:36:55.258Z,101117.06
2023-02-01T19:39:25.266Z,101114.13
2023-02-01T19:41:53.241Z,101116.25
2023-02-01T19:44:21.903Z,101119.69
2023-02-01T19:46:50.280Z,101112.94
2023-02-01T19:49:18.627Z,101122.66
2023-02-01T19:51:48.886Z,101103.38
2023-02-01T19:54:17.628Z,101105.59
2023-02-01T19:56:45.933Z,101112.28
2023-02-01T19:59:15.266Z,101116.94
2023-02-01T20:01:46.878Z,101104.06
2023-02-01T20:04:18.073Z,101111.75
2023-02-01T20:06:49.536Z,101110.22
2023-02-01T20:09:22.015Z,101113.78
2023-02-01T20:11:50.768Z,101110.59
2023-02-01T20:14:19.037Z,101101.78
2023-02-01T20:16:47.551Z,101098.09
2023-02-01T20:19:16.555Z,101112.53
2023-02-01T20:21:44.600Z,101112.13
2023-02-01T20:24:17.098Z,101108.97
2023-02-01T20:26:46.510Z,101108.25
2023-02-01T20:29:19.045Z,101109.09
2023-02-01T20:31:47.015Z,101106.97
2023-02-01T20:34:16.528Z,101106.84
2023-02-01T20:36:44.433Z,101109.25
2023-02-01T20:39:15.063Z,101122.22
2023-02-01T20:41:43.946Z,101125.53
2023-02-01T20:44:12.497Z,101129.03
2023-02-01T20:46:40.536Z,101120.59
2023-02-01T20:49:08.903Z,101128.34
2023-02-01T20:51:36.824Z,101132.78
2023-02-01T20:54:05.133Z,101131.53
2023-02-01T20:56:33.064Z,101130.25
2023-02-01T20:59:04.242Z,101137.16
2023-02-01T21:01:32.197Z,101142.50
2023-02-01T21:04:00.640Z,101134.78
2023-02-01T21:06:28.658Z,101137.94
2023-02-01T21:08:59.112Z,101128.91
2023-02-01T21:11:27.353Z,101132.09
2023-02-01T21:13:55.551Z,101132.66
2023-02-01T21:16:23.682Z,101124.75
2023-02-01T21:18:55.889Z,101122.13
2023-02-01T21:21:26.327Z,101121.91
2023-02-01T21:23:57.150Z,101130.66
2023-02-01T21:26:27.126Z,101127.09
2023-02-01T21:28:56.953Z,101125.50
2023-02-01T21:31:26.035Z,101134.09
2023-02-01T21:33:56.722Z,101126.75
2023-02-01T21:36:25.285Z,101117.50
2023-02-01T21:38:55.311Z,101124.66
2023-02-01T21:41:43.985Z,101126.53
2023-02-01T21:44:14.878Z,101125.75
2023-02-01T21:46:44.369Z,101129.97
2023-02-01T21:49:15.276Z,101134.50
2023-02-01T21:51:43.685Z,101133.94
2023-02-01T21:54:12.378Z,101131.31
2023-02-01T21:56:41.286Z,101142.97
2023-02-01T21:59:13.522Z,101148.81
2023-02-01T22:01:42.596Z,101132.34
2023-02-01T22:04:11.476Z,101138.19
2023-02-01T22:06:46.894Z,101132.34
2023-02-01T22:09:23.275Z,101138.72
2023-02-01T22:11:53.322Z,101130.47
2023-02-01T22:14:22.627Z,101132.59
2023-02-01T22:16:53.039Z,101133.69
2023-02-01T22:19:22.629Z,101134.75
2023-02-01T22:21:50.750Z,101132.34
2023-02-01T22:24:22.995Z,101131.00
2023-02-01T22:26:51.241Z,101142.72
2023-02-01T22:29:23.957Z,101135.56
2023-02-01T22:31:51.999Z,101130.25
2023-02-01T22:34:22.496Z,101142.69
2023-02-01T22:36:50.469Z,101137.94
2023-02-01T22:39:18.810Z,101144.81
2023-02-01T22:41:46.904Z,101155.69
2023-02-01T22:44:15.395Z,101155.44
2023-02-01T22:46:43.422Z,101151.69
2023-02-01T22:49:11.999Z,101153.84
2023-02-01T22:51:40.254Z,101149.03
2023-02-01T22:54:21.673Z,101146.91
2023-02-01T22:56:50.232Z,101149.59
2023-02-01T22:59:18.743Z,101148.50
2023-02-01T23:01:46.886Z,101142.97
2023-02-01T23:04:16.096Z,101149.31
2023-02-01T23:06:44.205Z,101158.31
2023-02-01T23:09:19.047Z,101158.31
2023-02-01T23:11:47.221Z,101159.66
2023-02-01T23:14:16.776Z,101160.47
2023-02-01T23:16:46.201Z,101152.78
2023-02-01T23:19:14.645Z,101155.94
2023-02-01T23:21:43.027Z,101149.31
2023-02-01T23:24:11.441Z,101146.69
2023-02-01T23:26:40.131Z,101150.38
2023-02-01T23:29:16.444Z,101144.56
2023-02-01T23:31:44.465Z,101141.63
2023-02-01T23:34:12.901Z,101145.59
2023-02-01T23:36:40.962Z,101147.72
2023-02-01T23:39:09.282Z,101143.78
2023-02-01T23:41:37.221Z,101133.16
2023-02-01T23:44:05.832Z,101138.19
2023-02-01T23:46:39.703Z,101123.88
2023-02-01T23:49:09.722Z,101130.50
2023-02-01T23:51:37.866Z,101136.06
2023-02-01T23:54:07.901Z,101135.81
2023-02-01T23:56:39.865Z,101130.75
2023-02-01T23:59:14.783Z,101136.31
